createdAt,value
2017-09-04T00:00:51.473Z,6.7
2017-09-04T00:01:53.701Z,6.3
2017-09-04T00:02:56.326Z,6.0
2017-09-04T00:03:57.983Z,6.6
2017-09-04T00:05:00.310Z,6.3
2017-09-04T00:06:01.956Z,6.4
2017-09-04T00:07:03.609Z,6.2
2017-09-04T00:08:05.259Z,6.8
2017-09-04T00:09:08.636Z,6.8
2017-09-04T00:10:09.402Z,6.6
2017-09-04T00:11:11.804Z,5.8
2017-09-04T00:12:13.439Z,6.6
2017-09-04T00:13:15.774Z,6.4
2017-09-04T00:14:17.423Z,6.6
2017-09-04T00:15:19.075Z,6.9
2017-09-04T00:16:20.728Z,5.9
2017-09-04T00:17:22.382Z,6.3
2017-09-04T00:18:24.045Z,6.1
2017-09-04T00:19:25.699Z,6.2
2017-09-04T00:20:27.353Z,6.0
2017-09-04T00:21:31.375Z,6.3
2017-09-04T00:22:33.027Z,7.0
2017-09-04T00:23:34.669Z,6.3
2017-09-04T00:24:36.322Z,6.6
2017-09-04T00:25:37.973Z,6.4
2017-09-04T00:26:39.620Z,6.3
2017-09-04T00:27:41.923Z,6.2
2017-09-04T00:28:43.570Z,7.0
2017-09-04T00:29:45.214Z,6.6
2017-09-04T00:30:46.859Z,6.1
2017-09-04T00:31:48.513Z,6.3
2017-09-04T00:32:50.166Z,6.3
2017-09-04T00:33:51.812Z,6.6
2017-09-04T00:34:53.479Z,6.0
2017-09-04T00:35:55.129Z,6.6
2017-09-04T00:36:56.787Z,6.4
2017-09-04T00:37:59.366Z,6.2
2017-09-04T00:39:01.014Z,6.3
2017-09-04T00:40:02.667Z,6.1
2017-09-04T00:41:04.315Z,6.0
2017-09-04T00:42:05.968Z,6.1
2017-09-04T00:43:07.617Z,6.5
2017-09-04T00:44:09.260Z,6.6
2017-09-04T00:45:12.384Z,5.8
2017-09-04T00:46:14.036Z,6.4
2017-09-04T00:47:16.260Z,5.8
2017-09-04T00:48:18.885Z,5.5
2017-09-04T00:49:20.527Z,5.4
2017-09-04T00:50:22.176Z,5.2
2017-09-04T00:51:23.830Z,5.0
2017-09-04T00:52:25.997Z,5.0
2017-09-04T00:53:27.652Z,5.5
2017-09-04T00:54:29.312Z,5.4
2017-09-04T00:55:30.959Z,5.5
2017-09-04T00:56:32.657Z,5.7
2017-09-04T00:57:34.307Z,5.2
2017-09-04T00:58:36.452Z,6.7
2017-09-04T00:59:38.108Z,7.3
2017-09-04T01:00:41.133Z,7.9
2017-09-04T01:01:42.960Z,8.9
2017-09-04T01:02:45.259Z,8.8
2017-09-04T01:03:46.910Z,8.5
2017-09-04T01:04:48.557Z,8.9
2017-09-04T01:05:50.962Z,9.3
2017-09-04T01:06:53.462Z,8.9
2017-09-04T01:07:55.116Z,8.3
2017-09-04T01:08:56.773Z,7.5
2017-09-04T01:09:58.414Z,6.9
2017-09-04T01:11:01.343Z,6.8
2017-09-04T01:12:02.991Z,6.6
2017-09-04T01:13:05.290Z,6.6
2017-09-04T01:14:06.942Z,5.7
2017-09-04T01:15:08.649Z,5.5
2017-09-04T01:16:11.918Z,5.4
2017-09-04T01:17:13.567Z,6.5
2017-09-04T01:18:15.884Z,6.1
2017-09-04T01:19:17.531Z,5.9
2017-09-04T01:20:19.180Z,5.4
2017-09-04T01:21:20.827Z,5.0
2017-09-04T01:22:22.478Z,6.0
2017-09-04T01:23:24.129Z,5.6
2017-09-04T01:24:25.787Z,5.5
2017-09-04T01:25:27.435Z,6.0
2017-09-04T01:26:29.083Z,5.8
2017-09-04T01:27:31.449Z,5.4
2017-09-04T01:28:33.093Z,5.8
2017-09-04T01:29:34.739Z,6.3
2017-09-04T01:30:37.181Z,6.7
2017-09-04T01:31:38.819Z,6.2
2017-09-04T01:32:42.810Z,6.2
2017-09-04T01:33:44.462Z,6.8
2017-09-04T01:34:46.132Z,6.4
2017-09-04T01:35:47.786Z,7.0
2017-09-04T01:36:50.216Z,7.1
2017-09-04T01:37:51.869Z,7.3
2017-09-04T01:38:53.515Z,7.3
2017-09-04T01:39:55.804Z,7.3
2017-09-04T01:40:57.447Z,7.0
2017-09-04T01:41:59.101Z,6.4
2017-09-04T01:43:00.750Z,6.9
2017-09-04T01:44:02.413Z,6.5
2017-09-04T01:45:04.077Z,7.0
2017-09-04T01:46:05.742Z,7.8
2017-09-04T01:47:07.396Z,8.1
2017-09-04T01:48:09.050Z,6.8
2017-09-04T01:49:11.638Z,7.1
2017-09-04T01:50:12.360Z,7.4
2017-09-04T01:51:14.007Z,7.8
2017-09-04T01:52:16.289Z,8.4
2017-09-04T01:53:17.949Z,7.7
2017-09-04T01:54:19.617Z,8.5
2017-09-04T01:55:21.275Z,8.8
2017-09-04T02:02:00.705Z,7.7
2017-09-04T02:03:02.350Z,8.6
2017-09-04T02:04:04.005Z,8.8
2017-09-04T02:05:05.656Z,7.7
2017-09-04T02:06:07.338Z,7.3
2017-09-04T02:07:08.970Z,7.7
2017-09-04T02:08:11.394Z,7.3
2017-09-04T02:09:13.041Z,7.8
2017-09-04T02:10:15.409Z,8.5
2017-09-04T02:11:17.065Z,8.1
2017-09-04T02:12:18.717Z,8.4
2017-09-04T02:13:20.365Z,8.7
2017-09-04T02:14:22.027Z,8.0
2017-09-04T02:15:23.680Z,8.5
2017-09-04T02:16:25.972Z,7.6
2017-09-04T02:17:27.632Z,8.0
2017-09-04T02:18:29.284Z,8.1
2017-09-04T02:19:31.697Z,8.6
2017-09-04T02:20:33.353Z,9.8
2017-09-04T02:21:35.718Z,9.3
2017-09-04T02:22:37.366Z,9.4
2017-09-04T02:23:40.511Z,10.7
2017-09-04T02:24:43.225Z,9.9
2017-09-04T02:25:44.287Z,9.7
2017-09-04T02:26:46.725Z,10.1
2017-09-04T02:27:49.338Z,11.1
2017-09-04T02:28:53.398Z,10.0
2017-09-04T02:29:56.726Z,10.5
2017-09-04T02:30:58.408Z,10.1
2017-09-04T02:32:00.060Z,10.2
2017-09-04T02:33:01.709Z,10.2
2017-09-04T02:34:03.367Z,11.4
2017-09-04T02:35:05.024Z,11.6
2017-09-04T02:36:06.681Z,10.3
2017-09-04T02:37:08.330Z,10.9
2017-09-04T02:38:09.979Z,10.5
2017-09-04T02:39:15.610Z,11.5
2017-09-04T02:40:17.262Z,10.7
2017-09-04T02:41:18.911Z,8.8
2017-09-04T02:42:21.492Z,10.4
2017-09-04T02:43:23.136Z,9.5
2017-09-04T02:44:24.813Z,9.2
2017-09-04T02:45:26.468Z,8.8
2017-09-04T02:46:28.114Z,9.0
2017-09-04T02:47:31.226Z,9.4
2017-09-04T02:48:32.070Z,8.4
2017-09-04T02:49:33.720Z,9.0
2017-09-04T02:50:36.244Z,9.6
2017-09-04T02:51:38.829Z,9.6
2017-09-04T02:52:40.482Z,8.5
2017-09-04T02:53:42.129Z,8.0
2017-09-04T02:54:43.777Z,8.2
2017-09-04T02:55:46.298Z,7.7
2017-09-04T02:56:47.956Z,7.5
2017-09-04T02:57:49.614Z,7.4
2017-09-04T02:58:52.022Z,8.0
2017-09-04T02:59:53.672Z,8.5
2017-09-04T03:00:56.006Z,7.7
2017-09-04T03:01:57.658Z,8.5
2017-09-04T03:02:59.310Z,8.1
2017-09-04T03:04:00.965Z,8.9
2017-09-04T03:05:02.613Z,8.7
2017-09-04T03:06:04.262Z,9.2
2017-09-04T03:07:05.914Z,9.1
2017-09-04T03:08:07.569Z,8.4
2017-09-04T03:09:09.217Z,9.3
2017-09-04T03:10:11.595Z,10.6
2017-09-04T03:11:13.245Z,11.0
2017-09-04T03:12:14.894Z,9.5
2017-09-04T03:13:16.547Z,10.3
2017-09-04T03:14:18.199Z,9.8
2017-09-04T03:15:19.857Z,9.1
2017-09-04T03:16:21.508Z,8.9
2017-09-04T03:17:23.156Z,8.9
2017-09-04T03:18:24.802Z,8.8
2017-09-04T03:19:26.457Z,8.6
2017-09-04T03:20:28.106Z,9.4
2017-09-04T03:21:29.764Z,9.5
2017-09-04T03:22:32.385Z,7.8
2017-09-04T03:23:34.037Z,7.7
2017-09-04T03:24:35.694Z,8.7
2017-09-04T03:25:37.339Z,8.5
2017-09-04T03:26:38.991Z,9.2
2017-09-04T03:27:40.665Z,10.0
2017-09-04T03:28:42.802Z,9.2
2017-09-04T03:29:44.459Z,9.8
2017-09-04T03:30:46.117Z,9.1
2017-09-04T03:31:47.770Z,9.4
2017-09-04T03:32:50.305Z,9.4
2017-09-04T03:33:51.955Z,9.8
2017-09-04T03:34:53.602Z,10.2
2017-09-04T03:35:55.252Z,9.5
2017-09-04T03:36:57.415Z,10.9
2017-09-04T03:37:59.058Z,10.1
2017-09-04T03:39:00.708Z,9.8
2017-09-04T03:40:02.375Z,11.3
2017-09-04T03:41:04.025Z,11.6
2017-09-04T03:42:07.022Z,10.9
2017-09-04T03:43:08.678Z,11.6
2017-09-04T03:44:10.326Z,11.6
2017-09-04T03:45:11.982Z,12.3
2017-09-04T03:46:13.630Z,12.7
2017-09-04T03:47:15.286Z,12.5
2017-09-04T03:48:16.945Z,11.7
2017-09-04T03:49:18.606Z,13.4
2017-09-04T03:50:20.254Z,14.6
2017-09-04T03:51:21.900Z,16.2
2017-09-04T03:52:23.554Z,16.1
2017-09-04T03:53:25.216Z,15.1
2017-09-04T03:54:27.726Z,15.8
2017-09-04T03:55:28.470Z,12.6
2017-09-04T03:56:30.125Z,12.8
2017-09-04T03:57:31.774Z,11.6
2017-09-04T03:58:33.432Z,11.0
2017-09-04T03:59:35.751Z,12.0
2017-09-04T04:00:37.405Z,10.5
2017-09-04T04:01:39.884Z,12.1
2017-09-04T04:02:43.260Z,11.8
2017-09-04T04:03:45.539Z,11.6
2017-09-04T04:04:47.188Z,12.4
2017-09-04T04:05:48.835Z,11.0
2017-09-04T04:06:51.241Z,9.9
2017-09-04T04:07:52.905Z,9.2
2017-09-04T04:08:54.563Z,9.2
2017-09-04T04:09:56.215Z,9.7
2017-09-04T04:10:57.877Z,9.6
2017-09-04T04:11:59.527Z,8.8
2017-09-04T04:13:01.173Z,8.7
2017-09-04T04:14:02.824Z,8.0
2017-09-04T04:15:04.470Z,7.3
2017-09-04T04:16:06.154Z,7.8
2017-09-04T04:17:07.781Z,7.6
2017-09-04T04:18:09.431Z,8.4
2017-09-04T04:19:12.027Z,9.0
2017-09-04T04:20:14.232Z,8.7
2017-09-04T04:21:15.885Z,8.1
2017-09-04T04:22:17.539Z,9.1
2017-09-04T04:23:19.187Z,9.5
2017-09-04T04:24:20.833Z,8.9
2017-09-04T04:25:22.491Z,7.9
2017-09-04T04:26:24.145Z,8.0
2017-09-04T04:27:25.792Z,8.3
2017-09-04T04:28:28.093Z,9.0
2017-09-04T04:29:29.736Z,9.6
2017-09-04T04:30:31.390Z,10.2
2017-09-04T04:31:33.048Z,10.5
2017-09-04T04:32:35.373Z,10.5
2017-09-04T04:33:37.028Z,10.4
2017-09-04T04:34:38.687Z,12.1
2017-09-04T04:35:40.337Z,12.5
2017-09-04T04:36:41.987Z,13.1
2017-09-04T04:37:43.634Z,11.5
2017-09-04T04:38:45.287Z,11.7
2017-09-04T04:39:46.948Z,11.5
2017-09-04T04:40:48.613Z,11.2
2017-09-04T04:41:50.268Z,11.2
2017-09-04T04:42:52.882Z,10.4
2017-09-04T04:43:54.536Z,10.4
2017-09-04T04:44:56.190Z,10.4
2017-09-04T04:45:58.797Z,10.2
2017-09-04T04:47:00.452Z,10.3
2017-09-04T04:48:02.105Z,9.2
2017-09-04T04:49:03.767Z,10.1
2017-09-04T04:50:05.420Z,9.7
2017-09-04T04:51:07.070Z,9.1
2017-09-04T04:52:08.727Z,8.9
2017-09-04T04:53:11.005Z,9.3
2017-09-04T04:54:12.669Z,9.1
2017-09-04T04:55:14.319Z,8.7
2017-09-04T04:56:16.561Z,9.2
2017-09-04T04:57:19.017Z,8.7
2017-09-04T04:58:20.680Z,8.5
2017-09-04T04:59:22.329Z,8.3
2017-09-04T05:00:24.959Z,8.2
2017-09-04T05:01:27.196Z,8.5
2017-09-04T05:02:28.985Z,8.2
2017-09-04T05:03:31.996Z,9.0
2017-09-04T05:04:33.671Z,9.2
2017-09-04T05:05:36.127Z,8.8
2017-09-04T05:06:39.206Z,9.6
2017-09-04T05:07:41.446Z,9.1
2017-09-04T05:08:43.808Z,9.1
2017-09-04T05:09:46.167Z,8.4
2017-09-04T05:10:47.881Z,7.6
2017-09-04T05:11:49.531Z,7.4
2017-09-04T05:12:51.185Z,7.3
2017-09-04T05:13:53.391Z,7.9
2017-09-04T05:14:55.515Z,7.2
2017-09-04T05:15:59.545Z,7.5
2017-09-04T05:17:01.300Z,8.1
2017-09-04T05:18:03.035Z,7.5
2017-09-04T05:19:05.064Z,7.6
2017-09-04T05:20:11.221Z,7.1
2017-09-04T05:21:12.874Z,6.3
2017-09-04T05:22:15.328Z,6.6
2017-09-04T05:23:16.660Z,7.4
2017-09-04T05:24:18.314Z,7.0
2017-09-04T05:25:20.184Z,6.9
2017-09-04T05:26:22.381Z,6.7
2017-09-04T05:27:24.035Z,6.6
2017-09-04T05:28:26.564Z,6.1
2017-09-04T05:29:36.137Z,7.4
2017-09-04T05:30:37.854Z,8.3
2017-09-04T05:31:40.277Z,6.9
2017-09-04T05:32:42.225Z,6.6
2017-09-04T05:33:43.875Z,7.3
2017-09-04T05:34:45.522Z,7.9
2017-09-04T05:35:47.182Z,7.4
2017-09-04T05:36:48.842Z,7.9
2017-09-04T05:37:50.513Z,8.5
2017-09-04T05:38:52.212Z,9.3
2017-09-04T05:39:53.869Z,8.8
2017-09-04T05:40:55.523Z,9.4
2017-09-04T05:41:57.182Z,8.1
2017-09-04T05:42:58.847Z,9.1
2017-09-04T05:44:00.502Z,9.8
2017-09-04T05:45:02.157Z,8.3
2017-09-04T05:46:05.857Z,8.3
2017-09-04T05:47:08.487Z,8.4
2017-09-04T05:48:10.142Z,8.1
2017-09-04T05:49:12.333Z,8.5
2017-09-04T05:50:13.996Z,9.3
2017-09-04T05:51:15.664Z,8.4
2017-09-04T05:52:17.326Z,8.7
2017-09-04T05:53:19.689Z,8.5
2017-09-04T05:54:21.340Z,7.5
2017-09-04T05:55:22.996Z,7.7
2017-09-04T06:01:25.918Z,5.9
2017-09-04T06:02:27.567Z,6.9
2017-09-04T06:04:19.399Z,7.3
2017-09-04T06:05:21.061Z,8.6
2017-09-04T06:07:12.845Z,7.2
2017-09-04T06:08:14.502Z,7.5
2017-09-04T06:09:16.159Z,7.1
2017-09-04T06:10:17.823Z,6.9
2017-09-04T06:11:19.475Z,7.4
2017-09-04T06:12:21.849Z,8.1
2017-09-04T06:13:23.512Z,7.5
2017-09-04T06:14:25.724Z,7.4
2017-09-04T06:15:27.378Z,7.3
2017-09-04T06:16:29.046Z,7.4
2017-09-04T06:17:31.288Z,7.5
2017-09-04T06:18:33.614Z,7.8
2017-09-04T06:19:35.276Z,8.0
2017-09-04T06:20:36.939Z,6.9
2017-09-04T06:21:39.443Z,7.3
2017-09-04T06:22:41.211Z,7.1
2017-09-04T06:23:43.821Z,7.3
2017-09-04T06:24:45.483Z,6.8
2017-09-04T06:25:47.142Z,7.5
2017-09-04T06:26:49.496Z,6.8
2017-09-04T06:27:51.163Z,6.7
2017-09-04T06:28:52.819Z,6.7
2017-09-04T06:29:55.660Z,6.5
2017-09-04T06:30:57.536Z,6.8
2017-09-04T06:31:59.195Z,6.7
2017-09-04T06:33:00.858Z,6.2
2017-09-04T06:34:02.527Z,5.5
2017-09-04T06:35:04.200Z,5.1
2017-09-04T06:36:05.858Z,5.3
2017-09-04T06:37:07.526Z,6.1
2017-09-04T06:38:09.191Z,6.0
2017-09-04T06:39:11.664Z,5.7
2017-09-04T06:40:12.475Z,5.3
2017-09-04T06:41:15.261Z,5.3
2017-09-04T06:42:16.925Z,5.3
2017-09-04T06:43:18.593Z,4.7
2017-09-04T06:44:20.249Z,4.5
2017-09-04T06:45:21.921Z,4.6
2017-09-04T06:46:23.576Z,4.7
2017-09-04T06:47:25.236Z,4.8
2017-09-04T06:48:26.893Z,4.4
2017-09-04T06:49:28.558Z,4.7
2017-09-04T06:50:30.329Z,4.9
2017-09-04T06:51:31.995Z,4.9
2017-09-04T06:52:33.714Z,4.4
2017-09-04T06:53:35.417Z,5.0
2017-09-04T06:54:37.079Z,5.6
2017-09-04T06:55:38.736Z,5.0
2017-09-04T06:56:40.404Z,4.8
2017-09-04T06:57:42.069Z,3.9
2017-09-04T06:58:43.740Z,4.2
2017-09-04T06:59:45.927Z,4.8
2017-09-04T07:00:47.595Z,4.6
2017-09-04T07:01:49.789Z,4.3
2017-09-04T07:02:51.461Z,4.5
2017-09-04T07:03:53.160Z,3.7
2017-09-04T07:04:54.830Z,3.6
2017-09-04T07:05:56.564Z,3.5
2017-09-04T07:06:58.229Z,3.9
2017-09-04T07:08:00.079Z,3.9
2017-09-04T07:09:02.679Z,4.7
2017-09-04T07:10:04.520Z,4.1
2017-09-04T07:11:06.191Z,4.0
2017-09-04T07:12:07.863Z,3.9
2017-09-04T07:13:10.171Z,4.2
2017-09-04T07:14:11.854Z,4.0
2017-09-04T07:15:13.517Z,3.8
2017-09-04T07:16:15.191Z,4.4
2017-09-04T07:17:16.895Z,4.0
2017-09-04T07:18:18.553Z,3.8
2017-09-04T07:19:21.240Z,3.6
2017-09-04T07:20:22.904Z,4.2
2017-09-04T07:21:24.574Z,4.3
2017-09-04T07:22:27.861Z,4.0
2017-09-04T07:23:29.595Z,3.9
2017-09-04T07:24:31.988Z,4.1
2017-09-04T07:25:33.655Z,4.7
2017-09-04T07:26:35.325Z,3.8
2017-09-04T07:27:36.987Z,4.4
2017-09-04T07:28:38.644Z,3.6
2017-09-04T07:29:40.978Z,3.6
2017-09-04T07:30:43.897Z,3.9
2017-09-04T07:31:45.561Z,3.8
2017-09-04T07:32:47.225Z,3.4
2017-09-04T07:33:48.952Z,4.1
2017-09-04T07:34:51.174Z,3.7
2017-09-04T07:35:52.240Z,3.5
2017-09-04T07:36:53.902Z,4.0
2017-09-04T07:37:55.570Z,3.6
2017-09-04T07:38:57.264Z,4.0
2017-09-04T07:39:58.924Z,3.3
2017-09-04T07:41:00.585Z,3.7
2017-09-04T07:42:02.675Z,3.6
2017-09-04T07:43:04.335Z,3.9
2017-09-04T07:44:06.002Z,3.2
2017-09-04T07:45:07.676Z,3.6
2017-09-04T07:46:09.328Z,3.4
2017-09-04T07:47:11.779Z,3.6
2017-09-04T07:48:13.451Z,3.7
2017-09-04T07:49:15.123Z,3.3
2017-09-04T07:50:17.672Z,2.9
2017-09-04T07:51:18.396Z,3.8
2017-09-04T07:52:20.566Z,3.8
2017-09-04T07:53:22.239Z,3.8
2017-09-04T07:54:23.906Z,4.0
2017-09-04T07:55:25.578Z,4.1
2017-09-04T07:56:27.247Z,3.5
2017-09-04T07:57:28.953Z,3.1
2017-09-04T07:58:30.618Z,3.4
2017-09-04T07:59:32.286Z,3.3
2017-09-04T08:00:33.961Z,3.4
2017-09-04T08:01:36.176Z,3.4
2017-09-04T08:02:37.895Z,3.6
2017-09-04T08:03:39.562Z,3.3
2017-09-04T08:04:41.225Z,3.4
2017-09-04T08:05:43.541Z,3.2
2017-09-04T08:06:45.719Z,3.2
2017-09-04T08:07:47.385Z,3.3
2017-09-04T08:08:49.057Z,3.0
2017-09-04T08:09:50.739Z,3.5
2017-09-04T08:10:52.407Z,2.9
2017-09-04T08:11:54.779Z,3.6
2017-09-04T08:12:56.442Z,2.9
2017-09-04T08:13:58.114Z,3.5
2017-09-04T08:14:59.837Z,3.3
2017-09-04T08:16:01.505Z,3.2
2017-09-04T08:17:03.183Z,2.9
2017-09-04T08:18:05.361Z,3.3
2017-09-04T08:19:07.628Z,3.2
2017-09-04T08:20:09.476Z,2.9
2017-09-04T08:21:12.461Z,3.1
2017-09-04T08:22:14.136Z,2.9
2017-09-04T08:23:15.814Z,4.0
2017-09-04T08:24:17.482Z,3.6
2017-09-04T08:25:19.156Z,2.9
2017-09-04T08:26:20.839Z,3.1
2017-09-04T08:27:22.506Z,3.1
2017-09-04T08:28:24.704Z,3.1
2017-09-04T08:29:26.372Z,3.2
2017-09-04T08:30:28.044Z,3.1
2017-09-04T08:31:31.307Z,3.1
2017-09-04T08:32:32.990Z,3.5
2017-09-04T08:33:34.656Z,3.3
2017-09-04T08:34:36.323Z,3.8
2017-09-04T08:35:38.004Z,3.6
2017-09-04T08:36:39.677Z,3.5
2017-09-04T08:37:41.360Z,3.6
2017-09-04T08:38:43.574Z,3.6
2017-09-04T08:39:45.753Z,3.7
2017-09-04T08:40:47.425Z,3.6
2017-09-04T08:41:49.093Z,4.1
2017-09-04T08:42:51.829Z,3.5
2017-09-04T08:43:53.507Z,3.8
2017-09-04T08:44:55.175Z,3.9
2017-09-04T08:45:56.871Z,4.3
2017-09-04T08:46:58.540Z,4.0
2017-09-04T08:48:00.214Z,3.6
2017-09-04T08:49:01.890Z,3.9
2017-09-04T08:50:03.560Z,4.8
2017-09-04T08:51:05.229Z,4.6
2017-09-04T08:52:06.904Z,4.9
2017-09-04T08:53:08.588Z,5.0
2017-09-04T08:54:10.264Z,4.9
2017-09-04T08:55:11.946Z,5.1
2017-09-04T08:56:13.658Z,4.7
2017-09-04T08:57:15.877Z,5.1
2017-09-04T08:58:17.567Z,5.5
2017-09-04T08:59:19.249Z,5.4
2017-09-04T09:00:20.931Z,5.9
2017-09-04T09:01:22.607Z,6.5
2017-09-04T09:02:24.281Z,6.4
2017-09-04T09:03:25.967Z,6.3
2017-09-04T09:04:27.648Z,7.2
2017-09-04T09:05:29.330Z,6.7
2017-09-04T09:06:31.798Z,7.1
2017-09-04T09:07:33.483Z,6.1
2017-09-04T09:08:35.162Z,6.1
2017-09-04T09:09:36.837Z,7.2
2017-09-04T09:10:38.513Z,6.4
2017-09-04T09:11:40.190Z,6.3
2017-09-04T09:12:43.242Z,6.1
2017-09-04T09:13:45.023Z,6.1
2017-09-04T09:14:46.711Z,5.7
2017-09-04T09:15:48.403Z,5.4
2017-09-04T09:16:50.082Z,5.4
2017-09-04T09:17:51.774Z,5.0
2017-09-04T09:18:53.441Z,5.4
2017-09-04T09:19:55.648Z,5.1
2017-09-04T09:20:57.328Z,5.2
2017-09-04T09:21:59.022Z,6.1
2017-09-04T09:23:00.694Z,5.5
2017-09-04T09:24:02.366Z,5.1
2017-09-04T09:25:04.044Z,4.6
2017-09-04T09:26:06.696Z,5.4
2017-09-04T09:27:07.349Z,4.7
2017-09-04T09:28:09.027Z,4.4
2017-09-04T09:29:11.246Z,5.0
2017-09-04T09:30:12.907Z,4.8
2017-09-04T09:31:15.368Z,4.5
2017-09-04T09:32:17.043Z,4.8
2017-09-04T09:33:19.283Z,4.9
2017-09-04T09:34:20.958Z,4.6
2017-09-04T09:35:22.680Z,4.5
2017-09-04T09:36:25.305Z,4.7
2017-09-04T09:37:26.978Z,4.3
2017-09-04T09:38:28.661Z,4.7
2017-09-04T09:39:31.358Z,4.3
2017-09-04T09:40:33.037Z,4.5
2017-09-04T09:41:34.717Z,5.2
2017-09-04T09:42:36.399Z,4.1
2017-09-04T09:43:38.074Z,4.6
2017-09-04T09:44:40.249Z,4.5
2017-09-04T09:45:42.838Z,4.8
2017-09-04T09:46:44.581Z,4.2
2017-09-04T09:47:47.216Z,4.6
2017-09-04T09:48:48.886Z,4.6
2017-09-04T09:49:50.570Z,4.5
2017-09-04T09:50:52.252Z,4.2
2017-09-04T09:51:53.925Z,4.0
2017-09-04T09:52:55.607Z,4.6
2017-09-04T09:53:57.291Z,4.3
2017-09-04T09:54:58.973Z,4.3
2017-09-04T10:01:03.684Z,3.8
2017-09-04T10:02:05.369Z,4.0
2017-09-04T10:03:58.007Z,3.6
2017-09-04T10:04:59.682Z,4.0
2017-09-04T10:06:01.351Z,4.0
2017-09-04T10:07:03.043Z,4.1
2017-09-04T10:08:05.485Z,3.9
2017-09-04T10:09:06.420Z,3.7
2017-09-04T10:10:08.117Z,4.1
2017-09-04T10:11:09.805Z,3.7
2017-09-04T10:12:12.008Z,4.1
2017-09-04T10:13:13.687Z,3.5
2017-09-04T10:14:15.358Z,3.8
2017-09-04T10:15:17.041Z,3.6
2017-09-04T10:16:18.732Z,3.6
2017-09-04T10:17:20.417Z,3.5
2017-09-04T10:18:22.088Z,3.2
2017-09-04T10:19:23.756Z,3.7
2017-09-04T10:20:26.200Z,3.6
2017-09-04T10:21:27.879Z,3.6
2017-09-04T10:22:29.554Z,3.8
2017-09-04T10:23:31.250Z,3.3
2017-09-04T10:24:32.942Z,3.9
2017-09-04T10:25:34.621Z,3.9
2017-09-04T10:26:36.296Z,3.4
2017-09-04T10:27:37.977Z,3.8
2017-09-04T10:28:40.597Z,3.4
2017-09-04T10:29:42.271Z,3.4
2017-09-04T10:30:43.950Z,3.8
2017-09-04T10:31:45.626Z,3.7
2017-09-04T10:32:47.310Z,3.2
2017-09-04T10:33:48.989Z,3.3
2017-09-04T10:34:51.351Z,3.7
2017-09-04T10:35:53.045Z,3.7
2017-09-04T10:36:54.726Z,3.3
2017-09-04T10:37:56.417Z,3.5
2017-09-04T10:38:58.098Z,3.2
2017-09-04T10:39:59.770Z,3.4
2017-09-04T10:41:01.475Z,3.7
2017-09-04T10:42:03.158Z,3.6
2017-09-04T10:43:04.830Z,3.6
2017-09-04T10:44:06.521Z,3.6
2017-09-04T10:45:08.196Z,3.7
2017-09-04T10:46:10.625Z,3.7
2017-09-04T10:47:12.361Z,4.0
2017-09-04T10:48:14.039Z,4.1
2017-09-04T10:49:15.717Z,3.9
2017-09-04T10:50:18.265Z,4.4
2017-09-04T10:51:20.693Z,4.1
2017-09-04T10:52:23.018Z,4.1
2017-09-04T10:53:25.359Z,4.1
2017-09-04T10:54:27.029Z,4.2
2017-09-04T10:55:28.698Z,3.9
2017-09-04T10:56:30.376Z,4.0
2017-09-04T10:57:32.550Z,4.6
2017-09-04T10:58:34.233Z,4.0
2017-09-04T10:59:35.910Z,3.5
2017-09-04T11:00:37.594Z,3.9
2017-09-04T11:01:39.269Z,3.5
2017-09-04T11:02:40.952Z,4.7
2017-09-04T11:03:42.682Z,4.3
2017-09-04T11:04:44.362Z,4.4
2017-09-04T11:05:46.045Z,4.2
2017-09-04T11:06:47.728Z,3.8
2017-09-04T11:07:49.417Z,3.9
2017-09-04T11:08:51.875Z,3.6
2017-09-04T11:09:53.556Z,3.5
2017-09-04T11:10:55.241Z,4.3
2017-09-04T11:11:56.924Z,3.6
2017-09-04T11:12:58.606Z,4.0
2017-09-04T11:14:00.371Z,4.0
2017-09-04T11:15:02.094Z,3.7
2017-09-04T11:16:03.766Z,4.2
2017-09-04T11:17:05.453Z,4.1
2017-09-04T11:18:07.122Z,3.6
2017-09-04T11:19:08.800Z,4.0
2017-09-04T11:20:10.478Z,4.6
2017-09-04T11:21:12.167Z,4.2
2017-09-04T11:22:14.629Z,4.1
2017-09-04T11:23:16.309Z,4.3
2017-09-04T11:24:19.313Z,4.0
2017-09-04T11:25:21.026Z,3.9
2017-09-04T11:26:22.699Z,3.6
2017-09-04T11:27:24.382Z,3.7
2017-09-04T11:28:26.062Z,3.6
2017-09-04T11:29:27.737Z,3.8
2017-09-04T11:30:30.368Z,3.6
2017-09-04T11:31:32.043Z,3.7
2017-09-04T11:32:33.726Z,4.0
2017-09-04T11:33:36.158Z,3.8
2017-09-04T11:34:37.843Z,3.5
2017-09-04T11:35:39.521Z,4.0
2017-09-04T11:36:41.199Z,3.9
2017-09-04T11:37:42.878Z,3.9
2017-09-04T11:38:44.563Z,3.5
2017-09-04T11:39:46.285Z,3.9
2017-09-04T11:40:48.725Z,3.6
2017-09-04T11:41:50.877Z,3.8
2017-09-04T11:42:52.559Z,3.3
2017-09-04T11:43:54.250Z,4.2
2017-09-04T11:44:55.926Z,3.4
2017-09-04T11:45:57.601Z,3.8
2017-09-04T11:46:59.275Z,4.0
2017-09-04T11:48:01.793Z,4.0
2017-09-04T11:49:03.478Z,3.8
2017-09-04T11:50:06.018Z,3.9
2017-09-04T11:51:07.700Z,3.6
2017-09-04T11:52:09.387Z,4.0
2017-09-04T11:53:11.830Z,4.2
2017-09-04T11:54:13.552Z,4.3
2017-09-04T11:55:15.223Z,4.0
2017-09-04T11:56:16.896Z,4.0
2017-09-04T11:57:18.580Z,4.0
2017-09-04T11:58:20.290Z,3.7
2017-09-04T11:59:21.965Z,4.2
2017-09-04T12:00:23.647Z,3.8
2017-09-04T12:01:26.076Z,4.4
2017-09-04T12:02:27.762Z,3.7
2017-09-04T12:03:29.436Z,3.9
2017-09-04T12:04:31.598Z,3.8
2017-09-04T12:05:33.275Z,3.7
2017-09-04T12:06:35.691Z,3.6
2017-09-04T12:07:37.408Z,3.2
2017-09-04T12:08:39.077Z,3.6
2017-09-04T12:09:41.318Z,3.6
2017-09-04T12:10:44.255Z,3.4
2017-09-04T12:11:46.714Z,3.3
2017-09-04T12:12:48.382Z,3.6
2017-09-04T12:13:51.516Z,3.8
2017-09-04T12:14:53.262Z,3.9
2017-09-04T12:15:55.677Z,3.5
2017-09-04T12:16:57.931Z,3.6
2017-09-04T12:18:00.262Z,3.2
2017-09-04T12:19:01.937Z,3.9
2017-09-04T12:20:03.612Z,3.9
2017-09-04T12:21:05.287Z,3.7
2017-09-04T12:22:06.963Z,3.5
2017-09-04T12:23:08.729Z,3.6
2017-09-04T12:24:10.390Z,3.9
2017-09-04T12:25:12.064Z,3.8
2017-09-04T12:26:13.743Z,3.9
2017-09-04T12:27:15.420Z,4.2
2017-09-04T12:28:17.113Z,4.4
2017-09-04T12:29:18.786Z,3.9
2017-09-04T12:30:20.461Z,3.5
2017-09-04T12:31:22.137Z,3.4
2017-09-04T12:32:23.871Z,3.6
2017-09-04T12:33:25.548Z,3.6
2017-09-04T12:34:27.226Z,4.0
2017-09-04T12:35:29.522Z,3.7
2017-09-04T12:36:30.545Z,3.7
2017-09-04T12:37:32.223Z,4.0
2017-09-04T12:38:33.898Z,3.7
2017-09-04T12:39:36.344Z,3.9
2017-09-04T12:40:38.008Z,3.6
2017-09-04T12:41:40.541Z,3.6
2017-09-04T12:42:43.167Z,3.5
2017-09-04T12:43:44.835Z,3.5
2017-09-04T12:44:48.006Z,2.9
2017-09-04T12:45:49.682Z,3.4
2017-09-04T12:46:51.379Z,3.2
2017-09-04T12:47:53.066Z,3.5
2017-09-04T12:48:54.746Z,3.8
2017-09-04T12:49:56.423Z,3.4
2017-09-04T12:50:58.102Z,3.3
2017-09-04T12:51:59.817Z,3.0
2017-09-04T12:53:02.216Z,3.5
2017-09-04T12:54:03.895Z,3.4
2017-09-04T12:55:05.590Z,3.0
2017-09-04T12:56:07.265Z,3.5
2017-09-04T12:57:08.952Z,3.2
2017-09-04T12:58:10.643Z,3.0
2017-09-04T12:59:12.318Z,3.4
2017-09-04T13:00:14.000Z,4.0
2017-09-04T13:01:15.682Z,3.2
2017-09-04T13:02:17.357Z,3.4
2017-09-04T13:03:19.041Z,3.4
2017-09-04T13:04:20.713Z,3.2
2017-09-04T13:05:22.397Z,4.1
2017-09-04T13:06:24.077Z,3.6
2017-09-04T13:07:25.756Z,3.5
2017-09-04T13:08:27.496Z,2.9
2017-09-04T13:09:29.171Z,3.0
2017-09-04T13:10:31.591Z,3.5
2017-09-04T13:11:33.271Z,3.6
2017-09-04T13:12:35.676Z,3.6
2017-09-04T13:13:37.365Z,3.2
2017-09-04T13:14:39.048Z,3.4
2017-09-04T13:15:40.746Z,3.4
2017-09-04T13:16:43.119Z,2.8
2017-09-04T13:17:45.537Z,3.2
2017-09-04T13:18:46.444Z,3.3
2017-09-04T13:19:48.166Z,3.3
2017-09-04T13:20:49.805Z,2.9
2017-09-04T13:21:51.625Z,2.7
2017-09-04T13:22:53.308Z,3.0
2017-09-04T13:23:55.703Z,2.9
2017-09-04T13:24:57.380Z,3.2
2017-09-04T13:26:00.580Z,3.1
2017-09-04T13:27:02.257Z,2.8
2017-09-04T13:28:03.936Z,3.0
2017-09-04T13:29:06.328Z,2.8
2017-09-04T13:30:08.009Z,3.0
2017-09-04T13:31:11.060Z,3.2
2017-09-04T13:32:12.736Z,3.0
2017-09-04T13:33:14.419Z,3.3
2017-09-04T13:34:16.090Z,2.7
2017-09-04T13:35:17.801Z,2.6
2017-09-04T13:36:19.475Z,2.6
2017-09-04T13:37:21.153Z,3.2
2017-09-04T13:38:22.830Z,3.1
2017-09-04T13:39:24.498Z,3.0
2017-09-04T13:40:26.188Z,2.9
2017-09-04T13:41:27.867Z,2.9
2017-09-04T13:42:29.539Z,3.0
2017-09-04T13:43:31.965Z,3.1
2017-09-04T13:44:33.647Z,3.1
2017-09-04T13:45:35.321Z,3.1
2017-09-04T13:46:36.995Z,2.7
2017-09-04T13:47:39.480Z,3.0
2017-09-04T13:48:41.158Z,2.9
2017-09-04T13:49:42.902Z,2.7
2017-09-04T13:50:44.572Z,2.8
2017-09-04T13:51:47.091Z,2.9
2017-09-04T13:52:48.768Z,3.2
2017-09-04T13:53:52.120Z,3.0
2017-09-04T13:54:53.910Z,2.8
2017-09-04T13:55:56.281Z,3.0
2017-09-04T14:01:52.187Z,2.6
2017-09-04T14:02:53.855Z,2.9
2017-09-04T14:04:45.750Z,2.8
2017-09-04T14:05:47.425Z,2.6
2017-09-04T14:06:49.093Z,2.8
2017-09-04T14:07:50.772Z,2.7
2017-09-04T14:08:52.462Z,2.7
2017-09-04T14:09:54.145Z,2.9
2017-09-04T14:10:55.825Z,2.9
2017-09-04T14:11:57.491Z,2.8
2017-09-04T14:12:59.177Z,3.1
2017-09-04T14:14:01.356Z,2.6
2017-09-04T14:15:03.043Z,2.8
2017-09-04T14:16:04.724Z,2.4
2017-09-04T14:17:06.405Z,3.0
2017-09-04T14:18:08.074Z,3.2
2017-09-04T14:19:09.753Z,2.7
2017-09-04T14:20:12.079Z,2.5
2017-09-04T14:21:13.766Z,2.8
2017-09-04T14:22:15.432Z,3.0
2017-09-04T14:23:17.660Z,2.5
2017-09-04T14:24:19.338Z,3.0
2017-09-04T14:25:21.000Z,2.7
2017-09-04T14:26:22.688Z,2.6
2017-09-04T14:27:24.368Z,2.5
2017-09-04T14:28:26.037Z,2.7
2017-09-04T14:29:27.734Z,3.3
2017-09-04T14:30:30.633Z,3.1
2017-09-04T14:31:32.312Z,2.7
2017-09-04T14:32:35.479Z,2.5
2017-09-04T14:33:36.252Z,2.9